This is the latest recevied weather packets stored in our database for station/object WK7G. If no packets are shown the sender has not sent any weather packets the latest 10 day(s).
| Time | Temp. | Humidity | Pressure | Rain* | Wind** | Luminosity | Snow |
|---|---|---|---|---|---|---|---|
| 1777929219 | 16.67° C | 40% | 1001.9 hPa | 0 mm | - | 185 W/m² | - |
| 1777928917 | 17.22° C | 35% | 1002 hPa | 0 mm | - | 213 W/m² | - |
| 1777928614 | 16.67° C | 39% | 1002.1 hPa | 0 mm | - | 822 W/m² | - |
| 1777928311 | 14.44° C | 56% | 1002.1 hPa | 0 mm | - | 700 W/m² | - |
| 1777928009 | 13.33° C | 53% | 1002.6 hPa | 0 mm | - | 212 W/m² | - |
| 1777927707 | 14.44° C | 52% | 1002.6 hPa | 3.05 mm | - | 172 W/m² | - |
| 1777927405 | 15° C | 46% | 1002.5 hPa | 3.05 mm | - | 136 W/m² | - |
| 1777927104 | 15.56° C | 42% | 1002.8 hPa | 0 mm | - | 79 W/m² | - |
| 1777926801 | 15° C | 44% | 1002.6 hPa | 0 mm | - | 55 W/m² | - |
| 1777926496 | 15.56° C | 44% | 1002.4 hPa | 0 mm | - | 67 W/m² | - |
| 1777926194 | 16.67° C | 43% | 1002.6 hPa | 0 mm | - | 98 W/m² | - |
| 1777925890 | 17.22° C | 42% | 1002.1 hPa | 0 mm | - | 149 W/m² | - |
| 1777925588 | 18.33° C | 39% | 1002.5 hPa | 0 mm | - | 533 W/m² | - |
| 1777925285 | 16.67° C | 41% | 1002.6 hPa | 0 mm | - | 970 W/m² | - |
| 1777924981 | 16.11° C | 40% | 1002.7 hPa | 0 mm | - | 209 W/m² | - |
| 1777924678 | 16.11° C | 41% | 1002.7 hPa | 0 mm | - | 185 W/m² | - |
| 1777924373 | 16.11° C | 43% | 1002.7 hPa | 0 mm | - | 184 W/m² | - |
| 1777924071 | 17.78° C | 36% | 1002.5 hPa | 0 mm | - | 217 W/m² | - |
| 1777923767 | 16.11° C | 41% | 1002.6 hPa | 0 mm | - | 918 W/m² | - |
| 1777923463 | 16.11° C | 43% | 1002.8 hPa | 0 mm | - | 173 W/m² | - |
| 1777923161 | 16.67° C | 35% | 1002.7 hPa | 0 mm | - | 95 W/m² | - |
| 1777922859 | 17.78° C | 36% | 1002.6 hPa | 0 mm | - | 106 W/m² | - |
| 1777922557 | 18.89° C | 33% | 1002.5 hPa | 0 mm | - | 182 W/m² | - |
| 1777922255 | 18.33° C | 36% | 1002.6 hPa | 0 mm | - | 839 W/m² | - |
| 1777921952 | 17.22° C | 38% | 1002.7 hPa | 0 mm | - | 429 W/m² | - |
* Rain latest hour (hover to see other rain measurements)
** Current wind speed in m/s (hover to see current wind gust speed)